Time;durP1;ratioP1;P1;durP2;ratioP2;P2;SDS_P1;SDS_P2;PMS_P1;PMS_P2;Temp;Humidity;BMP_temperature;BMP_pressure;BME280_temperature;BME280_humidity;BME280_pressure;Samples;Min_cycle;Max_cycle;Signal;HPM_P1;HPM_P2
2022/01/09 00:01:33;;;;;;;4.72;3.72;;;4.70;99.90;;;;;;5083636;27;20054;-83
2022/01/09 00:03:58;;;;;;;4.88;3.78;;;5.40;99.90;;;;;;5117272;27;20047;-84
2022/01/09 00:06:24;;;;;;;5.72;3.60;;;4.30;99.90;;;;;;5116711;27;20058;-82
2022/01/09 00:08:50;;;;;;;5.70;4.32;;;4.20;99.90;;;;;;5100208;27;20047;-82
2022/01/09 00:11:18;;;;;;;4.90;3.70;;;4.00;99.90;;;;;;5099707;27;20131;-82
2022/01/09 00:13:45;;;;;;;3.83;3.28;;;4.30;99.90;;;;;;5100374;27;20127;-83
2022/01/09 00:16:10;;;;;;;4.55;3.92;;;5.20;99.90;;;;;;5083061;27;20043;-83
2022/01/09 00:18:36;;;;;;;5.22;4.25;;;4.50;99.90;;;;;;5099709;27;20402;-83
2022/01/09 00:21:06;;;;;;;4.15;3.40;;;4.20;99.90;;;;;;5100747;27;20123;-82
2022/01/09 00:23:35;;;;;;;5.50;3.92;;;4.30;99.90;;;;;;5100190;27;20051;-83
2022/01/09 00:26:01;;;;;;;4.47;3.35;;;4.30;99.90;;;;;;5116592;27;20043;-83
2022/01/09 00:28:27;;;;;;;3.85;3.30;;;5.00;99.90;;;;;;5117699;27;20047;-83
2022/01/09 00:30:53;;;;;;;4.82;3.92;;;5.30;99.90;;;;;;5083126;27;20039;-84
2022/01/09 00:33:22;;;;;;;6.40;4.22;;;4.50;99.90;;;;;;5099148;28;20103;-83
2022/01/09 00:35:49;;;;;;;6.20;3.83;;;4.60;99.90;;;;;;5083154;27;20446;-83
2022/01/09 00:38:15;;;;;;;4.25;3.67;;;4.40;99.90;;;;;;5117563;27;20196;-84
2022/01/09 00:40:41;;;;;;;4.00;3.55;;;5.40;99.90;;;;;;5116769;28;20502;-84
2022/01/09 00:43:09;;;;;;;4.57;4.00;;;4.80;99.90;;;;;;5116624;27;20399;-84
2022/01/09 00:45:36;;;;;;;4.70;4.18;;;5.10;99.90;;;;;;5100015;27;20103;-84
2022/01/09 00:48:01;;;;;;;4.22;3.30;;;4.40;99.90;;;;;;5100006;28;20050;-84
2022/01/09 00:50:27;;;;;;;4.13;3.72;;;4.50;99.90;;;;;;5099587;28;20074;-84
2022/01/09 00:52:53;;;;;;;4.75;3.95;;;4.10;99.90;;;;;;5083147;27;20046;-84
2022/01/09 00:55:19;;;;;;;4.13;3.58;;;4.50;99.90;;;;;;5099797;28;20122;-84
2022/01/09 00:57:45;;;;;;;4.85;3.92;;;5.30;99.90;;;;;;5082847;28;20184;-83
2022/01/09 01:00:12;;;;;;;4.13;3.72;;;5.50;99.90;;;;;;5099629;28;20058;-84
2022/01/09 01:02:38;;;;;;;5.15;4.07;;;4.60;99.90;;;;;;5117342;28;20074;-84
2022/01/09 01:05:06;;;;;;;3.72;3.13;;;5.10;99.90;;;;;;5116443;28;20051;-84
2022/01/09 01:07:32;;;;;;;5.15;3.85;;;4.50;99.90;;;;;;5099587;28;20137;-84
2022/01/09 01:09:57;;;;;;;3.88;3.33;;;5.20;99.90;;;;;;5117323;28;20105;-84
2022/01/09 01:12:28;;;;;;;4.28;3.63;;;4.80;99.90;;;;;;5116911;28;20051;-85
2022/01/09 01:14:54;;;;;;;3.83;3.20;;;5.00;99.90;;;;;;5100681;28;20135;-84
2022/01/09 01:17:21;;;;;;;3.97;3.58;;;5.00;99.90;;;;;;5118317;28;20066;-85
2022/01/09 01:19:47;;;;;;;4.65;3.50;;;5.00;99.90;;;;;;5100930;28;20501;-84
2022/01/09 01:22:14;;;;;;;4.22;3.67;;;4.40;99.90;;;;;;5117182;28;20047;-84
2022/01/09 01:24:41;;;;;;;4.43;3.85;;;5.30;99.90;;;;;;5136986;28;20059;-83
2022/01/09 01:27:07;;;;;;;5.70;3.97;;;4.70;99.90;;;;;;5121385;28;20047;-83
2022/01/09 01:29:34;;;;;;;4.38;3.65;;;4.90;99.90;;;;;;5123120;28;20057;-84
2022/01/09 01:32:00;;;;;;;6.40;4.25;;;5.70;99.90;;;;;;5123920;28;20046;-84
2022/01/09 01:34:26;;;;;;;4.72;3.55;;;4.80;99.90;;;;;;5105336;28;20062;-77
2022/01/09 01:36:52;;;;;;;4.88;3.83;;;5.00;99.90;;;;;;5070872;28;20062;-84
2022/01/09 01:39:17;;;;;;;4.95;4.00;;;4.80;99.90;;;;;;5069127;28;20047;-84
2022/01/09 01:41:44;;;;;;;8.27;4.32;;;4.80;99.90;;;;;;5067826;28;20426;-84
2022/01/09 01:44:11;;;;;;;7.75;4.25;;;4.80;99.90;;;;;;5117439;28;20078;-84
2022/01/09 01:46:37;;;;;;;4.35;3.95;;;4.60;99.90;;;;;;5101719;27;20047;-84
2022/01/09 01:49:04;;;;;;;4.13;3.50;;;4.50;99.90;;;;;;5086925;27;20102;-85
2022/01/09 01:51:30;;;;;;;5.07;4.35;;;4.60;99.90;;;;;;5085988;27;20050;-85
2022/01/09 01:53:57;;;;;;;7.07;4.35;;;4.50;99.90;;;;;;5119868;27;20043;-84
2022/01/09 01:56:24;;;;;;;5.97;5.03;;;4.60;99.90;;;;;;5102343;27;20092;-84
2022/01/09 01:58:51;;;;;;;6.53;4.80;;;4.60;99.90;;;;;;5119480;27;20483;-84
2022/01/09 02:01:17;;;;;;;7.30;4.60;;;4.60;99.90;;;;;;5102699;27;20047;-83
2022/01/09 02:03:43;;;;;;;4.93;4.35;;;5.00;99.90;;;;;;5086227;27;20047;-84
2022/01/09 02:06:11;;;;;;;5.53;5.03;;;4.70;99.90;;;;;;5081785;28;20078;-84
2022/01/09 02:08:36;;;;;;;5.22;4.30;;;4.90;99.90;;;;;;5099704;28;20063;-85
2022/01/09 02:11:03;;;;;;;4.75;4.28;;;4.50;99.90;;;;;;5065366;28;20065;-83
2022/01/09 02:13:28;;;;;;;5.18;4.68;;;4.60;99.90;;;;;;5100142;28;20079;-84
2022/01/09 02:15:58;;;;;;;5.68;4.40;;;4.60;99.90;;;;;;5082269;28;20070;-84
2022/01/09 02:18:23;;;;;;;5.00;4.20;;;5.20;99.90;;;;;;5116041;28;20044;-84
2022/01/09 02:20:51;;;;;;;4.78;4.32;;;4.50;99.90;;;;;;5098925;28;20497;-85
2022/01/09 02:23:18;;;;;;;6.55;4.95;;;4.70;99.90;;;;;;5098533;28;20053;-84
2022/01/09 02:25:45;;;;;;;4.82;4.30;;;4.50;99.90;;;;;;5081997;28;20047;-85
2022/01/09 02:28:13;;;;;;;5.93;5.32;;;4.90;99.90;;;;;;5115609;28;20055;-84
2022/01/09 02:30:40;;;;;;;5.63;4.70;;;5.10;99.90;;;;;;5115381;28;20051;-85
2022/01/09 02:33:09;;;;;;;8.70;6.43;;;4.60;99.90;;;;;;5115601;28;20055;-84
2022/01/09 02:35:36;;;;;;;6.93;5.55;;;4.90;99.90;;;;;;5115273;28;20085;-85
2022/01/09 02:38:04;;;;;;;8.32;6.40;;;5.50;99.90;;;;;;5082666;28;20357;-84
2022/01/09 02:40:30;;;;;;;6.25;5.00;;;4.60;99.90;;;;;;5098151;28;20475;-84
2022/01/09 02:42:56;;;;;;;6.97;5.63;;;4.60;99.90;;;;;;5098377;28;20180;-84
2022/01/09 02:45:22;;;;;;;7.32;6.07;;;4.60;99.90;;;;;;5115593;28;20043;-84
2022/01/09 02:47:49;;;;;;;8.05;6.10;;;4.40;99.90;;;;;;5116079;28;20043;-84
2022/01/09 02:50:32;;;;;;;8.77;6.75;;;4.90;99.90;;;;;;5098561;28;20128;-85
2022/01/09 02:53:01;;;;;;;6.28;5.43;;;4.80;99.90;;;;;;5115331;28;20050;-85
2022/01/09 02:55:29;;;;;;;6.60;5.55;;;;;;;;;;5098472;28;20099;-85
2022/01/09 02:58:05;;;;;;;6.20;5.57;;;;;;;;;;5114548;28;20055;-85
2022/01/09 03:00:34;;;;;;;7.03;6.25;;;;;;;;;;5098635;28;20506;-85
2022/01/09 03:03:01;;;;;;;9.30;6.93;;;;;;;;;;5115060;28;20079;-85
2022/01/09 03:05:31;;;;;;;7.57;6.22;;;;;;;;;;5117555;27;20062;-85
2022/01/09 03:08:00;;;;;;;8.95;6.80;;;;;;;;;;5118344;27;20047;-85
2022/01/09 03:10:32;;;;;;;9.38;6.72;;;;;;;;;;5101241;27;20043;-85
2022/01/09 03:13:05;;;;;;;9.25;6.85;;;;;;;;;;5102189;27;20047;-85
2022/01/09 03:15:36;;;;;;;8.70;6.78;;;;;;;;;;5100997;27;20130;-85
2022/01/09 03:18:15;;;;;;;8.48;7.22;;;;;;;;;;5117801;27;20101;-85
2022/01/09 03:20:41;;;;;;;10.85;7.80;;;;;;;;;;5102005;27;20120;-85
2022/01/09 03:23:07;;;;;;;9.23;7.50;;;;;;;;;;5101018;27;20059;-85
2022/01/09 03:25:34;;;;;;;11.05;8.40;;;;;;;;;;5101877;27;20122;-85
2022/01/09 03:27:59;;;;;;;13.07;8.93;;;5.50;99.90;;;;;;5084308;27;20078;-84
2022/01/09 03:30:26;;;;;;;10.60;7.68;;;5.30;99.90;;;;;;5117998;27;20047;-85
2022/01/09 03:32:53;;;;;;;10.30;7.85;;;5.20;99.90;;;;;;5084844;27;20097;-85
2022/01/09 03:35:21;;;;;;;11.52;7.93;;;4.50;99.90;;;;;;5117744;27;20081;-84
2022/01/09 03:37:49;;;;;;;12.07;8.20;;;5.10;99.90;;;;;;5100605;27;20055;-84
2022/01/09 03:40:20;;;;;;;11.98;7.82;;;4.60;99.90;;;;;;5117927;27;20039;-85
2022/01/09 03:42:47;;;;;;;8.85;6.40;;;5.00;99.90;;;;;;5117599;27;20082;-83
2022/01/09 03:45:13;;;;;;;10.02;6.28;;;4.50;99.90;;;;;;5084142;27;20051;-83
2022/01/09 03:47:39;;;;;;;11.98;5.55;;;5.00;99.90;;;;;;5101429;27;20043;-83
2022/01/09 03:50:08;;;;;;;9.27;6.00;;;5.00;99.90;;;;;;5084516;27;20054;-82
2022/01/09 03:52:36;;;;;;;11.27;5.55;;;5.10;99.90;;;;;;5117736;27;20047;-83
2022/01/09 03:55:03;;;;;;;9.75;5.78;;;4.70;99.90;;;;;;5117023;27;20047;-83
2022/01/09 03:57:29;;;;;;;11.68;5.47;;;4.90;99.90;;;;;;5100251;27;20047;-84
2022/01/09 03:59:55;;;;;;;9.85;5.50;;;5.40;99.90;;;;;;5100058;27;20053;-84
2022/01/09 04:02:20;;;;;;;9.20;4.28;;;6.00;99.90;;;;;;5100397;27;20122;-84
2022/01/09 04:04:46;;;;;;;8.75;3.63;;;5.20;99.90;;;;;;5100323;27;20046;-84
2022/01/09 04:07:12;;;;;;;9.48;3.42;;;5.20;99.90;;;;;;5079805;28;20055;-84
2022/01/09 04:09:43;;;;;;;8.88;2.75;;;5.10;99.90;;;;;;5095767;28;20130;-83
2022/01/09 04:12:17;;;;;;;6.47;2.88;;;5.30;99.90;;;;;;5065386;28;20051;-84
2022/01/09 04:14:44;;;;;;;6.40;2.38;;;5.20;99.90;;;;;;5113416;28;20100;-85
2022/01/09 04:17:17;;;;;;;7.45;2.05;;;4.90;99.90;;;;;;5096648;28;20075;-86
2022/01/09 04:19:43;;;;;;;10.75;1.80;;;5.30;99.90;;;;;;5098206;28;20135;-85
2022/01/09 04:22:09;;;;;;;5.28;1.52;;;5.30;99.90;;;;;;5096281;28;20075;-85
2022/01/09 04:24:35;;;;;;;7.00;1.33;;;5.20;99.90;;;;;;5096872;28;20048;-86
2022/01/09 04:27:00;;;;;;;7.03;1.38;;;5.90;99.90;;;;;;5063766;28;20047;-86
2022/01/09 04:29:26;;;;;;;7.38;1.35;;;5.30;99.90;;;;;;5096445;28;20063;-86
2022/01/09 04:31:52;;;;;;;7.30;1.17;;;5.50;99.90;;;;;;5096392;28;20055;-86
2022/01/09 04:34:17;;;;;;;7.60;1.35;;;5.30;99.90;;;;;;5079839;28;20043;-86
2022/01/09 04:36:43;;;;;;;8.75;1.20;;;5.20;99.90;;;;;;5096190;28;20107;-86
2022/01/09 04:39:09;;;;;;;5.85;0.93;;;5.40;99.90;;;;;;5096298;28;20092;-85
2022/01/09 04:41:34;;;;;;;7.88;1.50;;;5.60;99.90;;;;;;5095877;28;20073;-85
2022/01/09 04:44:00;;;;;;;11.77;1.55;;;5.40;99.90;;;;;;5096270;28;20091;-85
2022/01/09 04:46:36;;;;;;;9.07;1.08;;;5.50;99.90;;;;;;5095946;28;20126;-86
2022/01/09 04:49:02;;;;;;;7.50;1.00;;;5.60;99.90;;;;;;5098035;28;20118;-85
2022/01/09 04:51:28;;;;;;;8.63;1.00;;;5.90;99.90;;;;;;5079393;28;20534;-84
2022/01/09 04:53:54;;;;;;;7.35;0.90;;;5.70;99.90;;;;;;5113831;28;20055;-84
2022/01/09 04:56:19;;;;;;;8.82;1.10;;;5.40;99.90;;;;;;5095667;28;20051;-82
2022/01/09 04:58:45;;;;;;;9.20;1.10;;;5.70;99.90;;;;;;5112913;28;20498;-83
2022/01/09 05:01:11;;;;;;;13.40;1.30;;;5.60;99.90;;;;;;5079308;28;20100;-82
2022/01/09 05:03:36;;;;;;;7.65;1.33;;;5.50;99.90;;;;;;5079238;28;20054;-81
2022/01/09 05:06:02;;;;;;;11.65;1.30;;;6.10;99.90;;;;;;5095846;28;20055;-83
2022/01/09 05:08:28;;;;;;;9.50;1.17;;;5.40;99.90;;;;;;5096248;28;20142;-81
2022/01/09 05:10:54;;;;;;;16.08;1.33;;;6.30;99.90;;;;;;5096810;28;20437;-82
2022/01/09 05:13:20;;;;;;;13.52;2.38;;;5.40;99.90;;;;;;5079356;28;20105;-83
2022/01/09 05:15:45;;;;;;;18.77;2.75;;;5.80;99.90;;;;;;5095894;28;20036;-82
2022/01/09 05:18:14;;;;;;;19.27;2.38;;;5.60;99.90;;;;;;5078810;28;20484;-82
2022/01/09 05:20:44;;;;;;;18.17;2.30;;;5.80;99.90;;;;;;5098583;28;20062;-79
2022/01/09 05:23:10;;;;;;;22.25;2.85;;;5.50;99.90;;;;;;5083899;28;20050;-79
2022/01/09 05:25:37;;;;;;;24.35;2.83;;;5.90;99.90;;;;;;5116873;28;20051;-81
2022/01/09 05:28:03;;;;;;;17.95;3.35;;;5.80;99.90;;;;;;5083914;28;20387;-82
2022/01/09 05:30:29;;;;;;;18.10;3.22;;;5.90;99.90;;;;;;5100128;28;20589;-80
2022/01/09 05:32:54;;;;;;;19.60;3.75;;;5.70;99.90;;;;;;5116598;28;20130;-80
2022/01/09 05:35:20;;;;;;;22.23;3.10;;;6.00;99.90;;;;;;5099853;28;20130;-80
2022/01/09 05:37:46;;;;;;;16.60;2.80;;;5.70;99.90;;;;;;5117500;28;20456;-81
2022/01/09 05:40:12;;;;;;;23.50;3.08;;;5.90;99.90;;;;;;5099721;28;20031;-79
2022/01/09 05:42:38;;;;;;;27.08;3.70;;;5.70;99.90;;;;;;5099424;28;20058;-76
2022/01/09 05:45:07;;;;;;;19.50;2.38;;;5.70;99.90;;;;;;5116603;28;20122;-84
2022/01/09 05:47:33;;;;;;;20.75;2.63;;;5.80;99.90;;;;;;5099800;28;20043;-84
2022/01/09 05:49:58;;;;;;;19.88;3.20;;;6.10;99.90;;;;;;5116749;28;20096;-77
2022/01/09 05:52:24;;;;;;;18.98;2.95;;;6.10;99.90;;;;;;5116113;28;20509;-77
2022/01/09 05:54:50;;;;;;;21.17;2.38;;;5.80;99.90;;;;;;5116117;28;20449;-76
2022/01/09 05:57:16;;;;;;;17.00;2.28;;;5.70;99.90;;;;;;5099277;28;20487;-77
2022/01/09 05:59:41;;;;;;;15.45;2.35;;;6.40;99.90;;;;;;5117326;28;20100;-77
2022/01/09 06:02:08;;;;;;;15.98;2.50;;;6.10;99.90;;;;;;5099489;28;20048;-78
2022/01/09 06:04:34;;;;;;;14.95;2.88;;;5.80;99.90;;;;;;5117036;28;20044;-77
2022/01/09 06:06:59;;;;;;;15.02;2.50;;;6.00;99.90;;;;;;5115930;28;20543;-77
2022/01/09 06:09:25;;;;;;;10.90;2.00;;;5.80;99.90;;;;;;5116418;28;20103;-77
2022/01/09 06:11:51;;;;;;;16.15;2.80;;;6.00;99.90;;;;;;5116368;28;20043;-77
2022/01/09 06:14:17;;;;;;;19.85;2.78;;;5.80;99.90;;;;;;5115839;28;20418;-77
2022/01/09 06:16:43;;;;;;;20.27;2.40;;;6.10;99.90;;;;;;5116641;28;20036;-76
2022/01/09 06:19:10;;;;;;;17.13;2.38;;;5.60;99.90;;;;;;5116715;28;20046;-77
2022/01/09 06:21:36;;;;;;;15.35;2.00;;;6.10;99.90;;;;;;5115638;28;20051;-76
2022/01/09 06:24:02;;;;;;;13.13;1.90;;;6.10;99.90;;;;;;5116899;28;20079;-75
2022/01/09 06:26:28;;;;;;;13.13;2.03;;;5.80;99.90;;;;;;5117322;28;20089;-76
2022/01/09 06:28:54;;;;;;;15.95;2.25;;;6.00;99.90;;;;;;5115536;28;20135;-77
2022/01/09 06:31:19;;;;;;;11.02;1.80;;;5.90;99.90;;;;;;5114911;28;20054;-76
2022/01/09 06:33:45;;;;;;;17.50;2.10;;;5.80;99.90;;;;;;5098383;28;20083;-75
2022/01/09 06:36:11;;;;;;;16.95;2.50;;;5.90;99.90;;;;;;5115228;28;20112;-77
2022/01/09 06:38:37;;;;;;;12.85;2.00;;;6.30;99.90;;;;;;5098580;28;20056;-76
2022/01/09 06:41:03;;;;;;;20.70;2.35;;;5.80;99.90;;;;;;5116527;28;20066;-74
2022/01/09 06:43:29;;;;;;;18.38;2.20;;;6.00;99.90;;;;;;5115450;28;20039;-74
2022/01/09 06:45:55;;;;;;;13.05;1.85;;;5.80;99.90;;;;;;5115446;28;20544;-74
2022/01/09 06:48:21;;;;;;;18.02;1.85;;;5.90;99.90;;;;;;5116372;28;20575;-75
2022/01/09 06:50:46;;;;;;;19.70;2.17;;;5.90;99.90;;;;;;5115155;28;20051;-75
2022/01/09 06:53:12;;;;;;;15.90;1.70;;;6.00;99.90;;;;;;5099001;28;20368;-75
2022/01/09 06:55:38;;;;;;;17.10;2.10;;;6.40;99.90;;;;;;5115086;28;20040;-75
2022/01/09 06:58:03;;;;;;;10.82;1.38;;;5.70;99.90;;;;;;5081971;28;20043;-75
2022/01/09 07:00:29;;;;;;;17.05;1.70;;;6.20;99.90;;;;;;5114842;28;20100;-75
2022/01/09 07:02:55;;;;;;;15.73;2.17;;;6.10;99.90;;;;;;5115104;28;20049;-74
2022/01/09 07:05:21;;;;;;;14.20;1.98;;;5.90;99.90;;;;;;5115368;28;20482;-75
2022/01/09 07:07:46;;;;;;;17.13;2.17;;;5.80;99.90;;;;;;5080642;28;20502;-74
2022/01/09 07:10:12;;;;;;;12.63;1.92;;;6.10;99.90;;;;;;5114318;28;20365;-74
2022/01/09 07:12:38;;;;;;;18.17;2.63;;;6.20;99.90;;;;;;5114775;28;20043;-74
2022/01/09 07:15:05;;;;;;;10.25;1.50;;;5.40;99.90;;;;;;5114656;28;20040;-74
2022/01/09 07:17:31;;;;;;;11.45;1.58;;;5.60;99.90;;;;;;5115705;28;20134;-75
2022/01/09 07:19:57;;;;;;;14.57;1.30;;;6.00;99.90;;;;;;5115672;28;20134;-74
2022/01/09 07:22:23;;;;;;;12.25;2.10;;;6.10;99.90;;;;;;5116209;28;20135;-74
2022/01/09 07:24:48;;;;;;;12.73;1.48;;;5.80;99.90;;;;;;5114467;28;20079;-75
2022/01/09 07:27:15;;;;;;;22.98;2.42;;;5.80;99.90;;;;;;5114552;28;20548;-74
2022/01/09 07:29:40;;;;;;;10.07;1.10;;;6.00;99.90;;;;;;5063810;28;20079;-75
2022/01/09 07:32:06;;;;;;;12.80;1.55;;;6.20;99.90;;;;;;5115000;28;20094;-75
2022/01/09 07:34:32;;;;;;;10.93;1.75;;;5.60;99.90;;;;;;5115260;28;20052;-75
2022/01/09 07:36:58;;;;;;;7.10;1.33;;;5.40;99.90;;;;;;5115261;28;20551;-72
2022/01/09 07:39:23;;;;;;;9.27;1.50;;;6.00;99.90;;;;;;5115327;28;20492;-75
2022/01/09 07:41:50;;;;;;;13.40;1.70;;;5.50;99.90;;;;;;5097247;28;20111;-75
2022/01/09 07:44:16;;;;;;;10.48;1.35;;;6.20;99.90;;;;;;5097220;28;20088;-75
2022/01/09 07:46:42;;;;;;;12.45;2.22;;;5.70;99.90;;;;;;5114558;28;20043;-75
2022/01/09 07:49:07;;;;;;;6.63;1.42;;;6.20;99.90;;;;;;5114010;28;20449;-75
2022/01/09 07:51:33;;;;;;;10.70;1.67;;;5.90;99.90;;;;;;5114654;28;20043;-76
2022/01/09 07:53:59;;;;;;;16.50;1.75;;;6.20;99.90;;;;;;5113569;28;20040;-76
2022/01/09 07:56:24;;;;;;;12.20;1.77;;;6.10;99.90;;;;;;5113677;28;20096;-75
2022/01/09 07:58:50;;;;;;;11.25;1.63;;;5.80;99.90;;;;;;5096999;28;20096;-75
2022/01/09 08:01:16;;;;;;;9.65;2.30;;;5.70;99.90;;;;;;5096834;28;20376;-76
2022/01/09 08:03:42;;;;;;;10.60;1.35;;;6.00;99.90;;;;;;5114723;28;20476;-76
2022/01/09 08:06:07;;;;;;;12.70;2.00;;;5.90;99.90;;;;;;5113378;28;20126;-75
2022/01/09 08:08:33;;;;;;;10.57;1.38;;;5.60;99.90;;;;;;5113509;28;20130;-74
2022/01/09 08:10:59;;;;;;;14.00;1.50;;;5.70;99.90;;;;;;5114720;28;20043;-75
2022/01/09 08:13:25;;;;;;;11.10;1.27;;;6.10;99.90;;;;;;5113944;28;20049;-75
2022/01/09 08:15:50;;;;;;;7.70;1.10;;;5.40;99.90;;;;;;5113412;28;20039;-79
2022/01/09 08:18:16;;;;;;;7.53;0.90;;;5.90;99.90;;;;;;5114318;28;20134;-75
2022/01/09 08:20:42;;;;;;;10.07;1.48;;;6.10;99.90;;;;;;5114535;28;20484;-74
2022/01/09 08:23:07;;;;;;;10.82;1.48;;;5.90;99.90;;;;;;5114506;28;20047;-75
2022/01/09 08:25:33;;;;;;;14.65;1.83;;;6.00;99.90;;;;;;5114446;28;20043;-75
2022/01/09 08:27:59;;;;;;;9.02;1.10;;;5.60;99.90;;;;;;5114450;28;20056;-75
2022/01/09 08:30:25;;;;;;;10.32;1.75;;;5.70;99.90;;;;;;5114520;28;20039;-75
2022/01/09 08:32:52;;;;;;;12.80;1.65;;;5.90;99.90;;;;;;5115347;28;20059;-73
2022/01/09 08:35:19;;;;;;;8.00;1.05;;;6.30;99.90;;;;;;5114302;28;20070;-75
2022/01/09 08:37:45;;;;;;;7.35;1.65;;;5.90;99.90;;;;;;5114352;28;20047;-75
2022/01/09 08:40:17;;;;;;;9.90;1.70;;;5.90;99.90;;;;;;5113718;28;20198;-75
2022/01/09 08:42:42;;;;;;;12.23;1.45;;;5.60;99.90;;;;;;5114633;28;20075;-75
2022/01/09 08:45:09;;;;;;;7.30;2.10;;;5.70;99.90;;;;;;5112734;28;20483;-73
2022/01/09 08:47:37;;;;;;;11.80;1.13;;;5.60;99.90;;;;;;5114362;28;20392;-72
2022/01/09 08:50:06;;;;;;;13.18;1.75;;;5.50;99.90;;;;;;5114191;28;20083;-75
2022/01/09 08:52:33;;;;;;;7.80;1.00;;;5.30;99.90;;;;;;5114098;28;20050;-74
2022/01/09 08:54:59;;;;;;;9.50;1.45;;;5.60;99.90;;;;;;5113763;28;20047;-74
2022/01/09 08:57:25;;;;;;;13.95;1.48;;;5.60;99.90;;;;;;5114643;28;20040;-74
2022/01/09 08:59:52;;;;;;;8.40;1.00;;;5.50;99.90;;;;;;5114221;28;20044;-76
2022/01/09 09:02:18;;;;;;;9.38;1.20;;;5.60;99.90;;;;;;5112455;28;20050;-75
2022/01/09 09:04:44;;;;;;;12.80;0.90;;;5.80;99.90;;;;;;5112581;28;20052;-75
2022/01/09 09:07:09;;;;;;;8.82;1.20;;;5.70;99.90;;;;;;5112227;28;20055;-75
2022/01/09 09:09:37;;;;;;;15.20;1.75;;;5.50;99.90;;;;;;5114045;28;20051;-76
2022/01/09 09:12:04;;;;;;;8.73;0.90;;;5.80;99.90;;;;;;5112539;28;20059;-77
2022/01/09 09:14:30;;;;;;;10.85;1.50;;;5.60;99.90;;;;;;5113930;28;20051;-74
2022/01/09 09:16:56;;;;;;;6.35;1.25;;;5.30;99.90;;;;;;5114195;28;20198;-74
2022/01/09 09:19:22;;;;;;;7.63;1.08;;;6.00;99.90;;;;;;5112617;28;20052;-75
2022/01/09 09:21:48;;;;;;;11.02;1.38;;;5.70;99.90;;;;;;5113507;28;20069;-76
2022/01/09 09:24:14;;;;;;;8.68;0.93;;;5.80;99.90;;;;;;5113500;28;20118;-76
2022/01/09 09:26:41;;;;;;;5.93;0.80;;;5.70;99.90;;;;;;5112209;28;20039;-76
2022/01/09 09:29:07;;;;;;;9.27;1.05;;;5.90;99.90;;;;;;5112275;28;20079;-76
2022/01/09 09:31:34;;;;;;;7.97;1.08;;;5.70;99.90;;;;;;5112292;28;20040;-77
2022/01/09 09:34:00;;;;;;;13.30;1.30;;;5.50;99.90;;;;;;5095804;28;20054;-74
2022/01/09 09:36:26;;;;;;;10.23;0.88;;;5.70;99.90;;;;;;5114100;28;20146;-75
2022/01/09 09:38:52;;;;;;;8.70;0.88;;;5.60;99.90;;;;;;5113777;28;20506;-77
2022/01/09 09:41:21;;;;;;;4.47;0.77;;;5.80;99.90;;;;;;5112902;28;20051;-78
2022/01/09 09:43:47;;;;;;;8.38;1.10;;;5.60;99.90;;;;;;5095859;28;20055;-79
2022/01/09 09:46:13;;;;;;;6.68;1.27;;;6.20;99.90;;;;;;5078790;28;20040;-78
2022/01/09 09:48:39;;;;;;;3.60;0.80;;;6.20;99.90;;;;;;5112606;28;20112;-78
2022/01/09 09:51:05;;;;;;;14.32;1.48;;;5.60;99.90;;;;;;5113279;28;20112;-77
2022/01/09 09:53:31;;;;;;;9.52;1.27;;;6.10;99.90;;;;;;5112490;28;20380;-77
2022/01/09 09:55:56;;;;;;;10.30;1.35;;;6.10;99.90;;;;;;5113560;28;20055;-77
2022/01/09 09:58:23;;;;;;;6.05;1.08;;;5.50;99.90;;;;;;5113584;28;20051;-77
2022/01/09 10:00:54;;;;;;;9.25;1.42;;;6.10;99.90;;;;;;5112652;28;20054;-76
2022/01/09 10:03:52;;;;;;;9.13;1.17;;;5.90;99.90;;;;;;5112096;28;20047;-76
2022/01/09 10:06:53;;;;;;;8.70;1.10;;;6.20;99.90;;;;;;5111771;28;20106;-76
2022/01/09 10:09:21;;;;;;;8.15;1.20;;;6.30;99.90;;;;;;5036924;28;20050;-79
2022/01/09 10:11:57;;;;;;;5.65;0.80;;;5.70;99.90;;;;;;5112241;28;20055;-78
2022/01/09 10:14:29;;;;;;;11.68;1.15;;;5.80;99.90;;;;;;5123129;28;20046;-76
2022/01/09 10:17:16;;;;;;;13.18;1.23;;;5.90;99.90;;;;;;5117522;28;20055;-77
2022/01/09 10:19:58;;;;;;;8.25;0.85;;;5.80;99.90;;;;;;5117197;28;20074;-76
2022/01/09 10:22:33;;;;;;;8.38;0.93;;;5.90;99.90;;;;;;5115600;28;20048;-77
2022/01/09 10:25:21;;;;;;;8.90;1.10;;;5.90;99.90;;;;;;5117106;28;20349;-76
2022/01/09 10:27:49;;;;;;;6.10;0.73;;;6.20;99.90;;;;;;5115416;28;20086;-75
2022/01/09 10:30:16;;;;;;;4.88;0.90;;;6.10;99.90;;;;;;5115090;28;20054;-76
2022/01/09 10:32:42;;;;;;;3.50;0.75;;;6.30;99.90;;;;;;5116379;28;20044;-78
2022/01/09 10:35:17;;;;;;;8.15;0.80;;;6.30;99.90;;;;;;5098326;28;20058;-76
2022/01/09 10:37:48;;;;;;;10.50;1.58;;;5.80;99.90;;;;;;5115243;28;20044;-77
2022/01/09 10:40:29;;;;;;;7.72;1.05;;;6.30;99.90;;;;;;5116494;28;20097;-77
2022/01/09 10:43:19;;;;;;;5.90;0.88;;;6.30;99.90;;;;;;5115888;28;20361;-78
2022/01/09 10:45:56;;;;;;;8.50;0.90;;;6.00;99.90;;;;;;5098838;28;20044;-75
2022/01/09 10:48:24;;;;;;;6.15;0.80;;;6.50;99.90;;;;;;5098887;28;20052;-77
2022/01/09 10:50:51;;;;;;;10.60;1.20;;;6.30;99.90;;;;;;5114783;28;20047;-76
2022/01/09 10:53:23;;;;;;;8.23;0.90;;;5.90;99.90;;;;;;5114897;28;20131;-76
2022/01/09 10:56:03;;;;;;;7.55;1.10;;;6.30;99.90;;;;;;5115795;27;20035;-77
2022/01/09 10:58:29;;;;;;;7.70;0.73;;;6.00;99.90;;;;;;5115632;28;20134;-77
2022/01/09 11:01:15;;;;;;;7.22;0.90;;;5.90;99.90;;;;;;5115831;28;20391;-77
2022/01/09 11:04:08;;;;;;;5.20;0.80;;;6.00;99.90;;;;;;5114418;28;20054;-74
2022/01/09 11:06:37;;;;;;;7.47;1.15;;;6.10;99.90;;;;;;5113446;28;20511;-76
2022/01/09 11:09:05;;;;;;;6.13;0.95;;;6.20;99.90;;;;;;5115614;28;20054;-77
2022/01/09 11:14:01;;;;;;;10.20;0.90;;;6.50;99.90;;;;;;5113446;28;20048;-77
2022/01/09 11:16:40;;;;;;;4.47;0.90;;;6.70;99.90;;;;;;5114763;28;20143;-76
2022/01/09 11:19:14;;;;;;;3.75;0.80;;;6.00;99.90;;;;;;5113752;28;20127;-77
2022/01/09 11:21:42;;;;;;;7.90;1.20;;;5.90;99.90;;;;;;5098333;28;20044;-78
2022/01/09 11:24:10;;;;;;;7.97;1.05;;;5.90;99.90;;;;;;5098077;28;20172;-77
2022/01/09 11:26:45;;;;;;;9.02;1.35;;;6.20;99.90;;;;;;5114890;28;20488;-75
2022/01/09 11:29:14;;;;;;;9.25;1.27;;;6.10;99.90;;;;;;5114579;28;20043;-77
2022/01/09 11:31:52;;;;;;;11.60;0.90;;;6.20;99.90;;;;;;5113853;28;20064;-77
2022/01/09 11:34:56;;;;;;;8.30;0.80;;;6.60;99.90;;;;;;5114948;28;20047;-78
2022/01/09 11:37:36;;;;;;;3.83;0.70;;;6.30;99.90;;;;;;5114322;28;20128;-78
2022/01/09 11:40:04;;;;;;;4.35;0.68;;;6.30;99.90;;;;;;5096859;28;20508;-78
2022/01/09 11:42:30;;;;;;;8.85;1.05;;;6.10;99.90;;;;;;5114530;28;20055;-78
2022/01/09 11:44:56;;;;;;;5.65;1.10;;;6.40;99.90;;;;;;5113920;28;20384;-77
2022/01/09 11:47:24;;;;;;;5.88;0.80;;;6.50;99.90;;;;;;5114435;28;20145;-79
2022/01/09 11:49:53;;;;;;;10.02;0.90;;;6.10;99.90;;;;;;5096895;28;20044;-76
2022/01/09 11:52:29;;;;;;;7.20;1.65;;;6.40;99.90;;;;;;5113400;28;20487;-78
2022/01/09 11:55:00;;;;;;;5.38;0.85;;;6.40;99.90;;;;;;5116251;28;20059;-76
2022/01/09 11:57:46;;;;;;;8.73;1.10;;;6.20;99.90;;;;;;5102031;28;20086;-78
2022/01/09 12:00:31;;;;;;;4.53;0.80;;;6.30;99.90;;;;;;5096280;28;20206;-77
2022/01/09 12:02:59;;;;;;;8.85;1.00;;;6.80;99.90;;;;;;5113050;28;20057;-77
2022/01/09 12:05:25;;;;;;;5.13;0.98;;;6.50;99.90;;;;;;5114464;27;20044;-77
2022/01/09 12:08:00;;;;;;;7.38;1.02;;;6.30;99.90;;;;;;5134971;27;20055;-77
2022/01/09 12:10:34;;;;;;;4.72;0.80;;;6.70;99.90;;;;;;5116328;27;20111;-75
2022/01/09 12:13:00;;;;;;;;;;;6.40;99.90;;;;;;5134882;27;20047;-78
2022/01/09 12:15:52;;;;;;;6.70;0.57;;;6.40;99.90;;;;;;5099350;27;19919;-76
2022/01/09 12:18:43;;;;;;;7.82;0.90;;;6.60;99.90;;;;;;5130290;27;20054;-75
2022/01/09 12:21:30;;;;;;;7.05;0.77;;;6.60;99.90;;;;;;5100194;27;20406;-77
2022/01/09 12:24:34;;;;;;;7.18;0.90;;;6.40;99.90;;;;;;5099464;27;20053;-76
2022/01/09 12:27:35;;;;;;;5.13;0.88;;;6.30;99.90;;;;;;5116454;27;20079;-77
2022/01/09 12:30:07;;;;;;;7.22;0.80;;;6.50;99.90;;;;;;5116161;27;20113;-76
2022/01/09 12:32:41;;;;;;;9.43;1.00;;;6.40;99.90;;;;;;5116480;27;20491;-77
2022/01/09 12:35:14;;;;;;;5.60;0.70;;;6.40;99.90;;;;;;5135843;27;20107;-77
2022/01/09 12:38:06;;;;;;;6.70;0.90;;;6.70;99.90;;;;;;5134949;27;20039;-78
2022/01/09 12:40:35;;;;;;;7.65;0.80;;;6.60;99.90;;;;;;5081851;27;20043;-76
2022/01/09 12:43:03;;;;;;;6.00;0.90;;;6.40;99.90;;;;;;5116494;27;20058;-77
2022/01/09 12:45:40;;;;;;;5.88;0.90;;;6.50;99.90;;;;;;5116735;27;20043;-79
2022/01/09 12:48:06;;;;;;;6.72;0.88;;;6.50;99.90;;;;;;5135477;27;20104;-79
2022/01/09 12:50:38;;;;;;;7.30;0.93;;;6.50;99.90;;;;;;5099480;27;20491;-77
2022/01/09 12:53:21;;;;;;;8.00;0.95;;;6.70;99.90;;;;;;5135575;27;20455;-77
2022/01/09 12:56:02;;;;;;;7.32;0.90;;;6.40;99.90;;;;;;5116946;27;20130;-77
2022/01/09 12:58:31;;;;;;;4.80;0.77;;;6.60;99.90;;;;;;5116649;28;20043;-78
2022/01/09 13:00:58;;;;;;;9.07;1.33;;;7.00;99.90;;;;;;5117001;28;20074;-77
2022/01/09 13:03:30;;;;;;;6.75;1.10;;;7.20;99.90;;;;;;5116584;28;20135;-78
2022/01/09 13:06:07;;;;;;;8.10;0.90;;;7.00;99.90;;;;;;5116666;28;20103;-77
2022/01/09 13:08:35;;;;;;;6.72;1.20;;;6.80;99.90;;;;;;5116830;28;20074;-77